Time;durP1;ratioP1;P1;durP2;ratioP2;P2;SDS_P1;SDS_P2;PMS_P1;PMS_P2;Temp;Humidity;BMP_temperature;BMP_pressure;BME280_temperature;BME280_humidity;BME280_pressure;Samples;Min_cycle;Max_cycle;Signal;HPM_P1;HPM_P2
2023/06/10 00:00:51;;;;;;;8.57;4.95;;;22.70;88.60;;;;;;4175152;28;20394;-61
2023/06/10 00:02:51;;;;;;;7.50;4.50;;;22.70;89.00;;;;;;4180980;28;20037;-61
2023/06/10 00:04:52;;;;;;;8.57;4.60;;;22.80;89.10;;;;;;4171837;28;20458;-61
2023/06/10 00:06:53;;;;;;;4.07;3.65;;;22.70;89.00;;;;;;4171302;28;20526;-61
2023/06/10 00:08:55;;;;;;;6.05;4.32;;;22.80;89.20;;;;;;4183613;28;20049;-61
2023/06/10 00:10:55;;;;;;;5.72;4.47;;;22.70;89.00;;;;;;4190154;28;20450;-61
2023/06/10 00:12:56;;;;;;;5.60;4.35;;;22.70;89.50;;;;;;4183587;28;20033;-61
2023/06/10 00:14:56;;;;;;;7.72;4.43;;;22.60;89.60;;;;;;4177401;28;20078;-62
2023/06/10 00:16:57;;;;;;;6.35;3.95;;;22.60;89.50;;;;;;4174304;28;20036;-61
2023/06/10 00:19:02;;;;;;;5.57;4.07;;;22.60;89.70;;;;;;4182744;28;20123;-61
2023/06/10 00:21:04;;;;;;;5.82;4.15;;;22.70;89.50;;;;;;4183727;28;20369;-65
2023/06/10 00:23:09;;;;;;;5.55;3.97;;;22.70;89.30;;;;;;4174797;28;20040;-62
2023/06/10 00:25:10;;;;;;;9.05;4.72;;;22.70;89.60;;;;;;4186610;28;20021;-62
2023/06/10 00:27:11;;;;;;;6.18;4.43;;;22.60;89.50;;;;;;4181091;28;20111;-62
2023/06/10 00:29:11;;;;;;;6.47;4.55;;;22.60;89.80;;;;;;4176437;28;20057;-62
2023/06/10 00:31:12;;;;;;;6.05;4.18;;;22.60;89.90;;;;;;4180120;28;20037;-61
2023/06/10 00:33:12;;;;;;;5.10;4.40;;;22.50;89.90;;;;;;4175695;28;20051;-62
2023/06/10 00:35:13;;;;;;;5.38;4.60;;;22.50;90.00;;;;;;4172719;28;20041;-62
2023/06/10 00:37:13;;;;;;;5.60;4.30;;;22.50;90.10;;;;;;4182851;28;20607;-62
2023/06/10 00:39:14;;;;;;;6.30;4.40;;;22.50;90.30;;;;;;4184129;28;20080;-61
2023/06/10 00:41:15;;;;;;;6.50;4.55;;;22.40;90.30;;;;;;4175374;28;20053;-61
2023/06/10 00:43:15;;;;;;;7.75;4.78;;;22.40;90.30;;;;;;4186954;28;20032;-63
2023/06/10 00:45:16;;;;;;;8.52;4.80;;;22.40;90.50;;;;;;4175494;28;20031;-61
2023/06/10 00:47:17;;;;;;;7.82;4.50;;;22.20;90.60;;;;;;4184246;28;20074;-61
2023/06/10 00:49:18;;;;;;;5.50;4.10;;;22.30;90.80;;;;;;4181334;28;20032;-61
2023/06/10 00:51:20;;;;;;;7.70;4.90;;;22.10;91.00;;;;;;4169892;28;20036;-61
2023/06/10 00:53:21;;;;;;;7.22;4.70;;;22.00;91.40;;;;;;4172203;28;20128;-61
2023/06/10 00:55:23;;;;;;;6.80;3.93;;;21.90;91.40;;;;;;4177727;28;20111;-61
2023/06/10 00:57:24;;;;;;;6.13;4.85;;;21.90;91.40;;;;;;4183918;28;20625;-61
2023/06/10 00:59:25;;;;;;;5.43;4.57;;;21.80;91.60;;;;;;4180325;28;20037;-61
2023/06/10 01:01:26;;;;;;;7.13;4.70;;;21.80;91.70;;;;;;4175287;28;20694;-61
2023/06/10 01:03:27;;;;;;;6.60;4.60;;;21.80;91.80;;;;;;4176275;28;20029;-61
2023/06/10 01:05:28;;;;;;;5.82;4.53;;;21.90;91.70;;;;;;4178504;28;20033;-61
2023/06/10 01:07:37;;;;;;;7.25;4.55;;;21.90;91.70;;;;;;4186052;28;20067;-61
2023/06/10 01:10:05;;;;;;;7.22;4.45;;;21.90;91.60;;;;;;4179796;28;20041;-61
2023/06/10 01:12:16;;;;;;;6.80;4.25;;;21.90;91.70;;;;;;4178456;28;20053;-61
2023/06/10 01:14:17;;;;;;;6.70;4.80;;;22.00;91.60;;;;;;4176167;28;20041;-61
2023/06/10 01:16:19;;;;;;;5.18;3.90;;;22.10;91.70;;;;;;4185609;28;20345;-61
2023/06/10 01:18:21;;;;;;;6.50;4.85;;;22.10;91.80;;;;;;4175565;28;20488;-61
2023/06/10 01:20:22;;;;;;;7.23;4.77;;;22.10;91.80;;;;;;4174050;28;20061;-61
2023/06/10 01:22:32;;;;;;;7.07;4.38;;;22.20;92.00;;;;;;4177765;28;20276;-61
2023/06/10 01:24:34;;;;;;;7.32;4.88;;;22.20;91.80;;;;;;4187380;28;20499;-61
2023/06/10 01:26:36;;;;;;;7.00;4.50;;;22.20;91.60;;;;;;4176220;28;20037;-61
2023/06/10 01:28:48;;;;;;;8.18;4.47;;;22.20;91.60;;;;;;4186228;28;20036;-62
2023/06/10 01:31:13;;;;;;;7.70;4.93;;;22.30;91.70;;;;;;4175583;28;20036;-61
2023/06/10 01:33:18;;;;;;;7.15;5.05;;;22.30;91.60;;;;;;4186512;28;20121;-61
2023/06/10 01:35:24;;;;;;;6.10;4.50;;;22.40;91.50;;;;;;4184864;28;20041;-61
2023/06/10 01:37:27;;;;;;;8.05;5.20;;;22.30;91.30;;;;;;4183315;28;20431;-61
2023/06/10 01:39:28;;;;;;;9.43;5.50;;;22.30;91.50;;;;;;4175893;28;20068;-61
2023/06/10 01:41:28;;;;;;;8.40;5.47;;;22.20;91.70;;;;;;4177067;28;20068;-61
2023/06/10 01:43:33;;;;;;;6.97;5.15;;;22.20;91.50;;;;;;4182372;28;20033;-60
2023/06/10 01:45:34;;;;;;;8.73;5.05;;;22.20;91.60;;;;;;4178947;28;20365;-61
2023/06/10 01:47:34;;;;;;;7.35;4.72;;;22.10;91.80;;;;;;4184193;28;20074;-61
2023/06/10 01:49:35;;;;;;;7.32;5.20;;;22.00;91.80;;;;;;4188036;28;20031;-61
2023/06/10 01:51:36;;;;;;;9.05;4.68;;;22.00;91.90;;;;;;4177957;28;21001;-61
2023/06/10 01:53:36;;;;;;;6.78;4.40;;;22.00;92.20;;;;;;4184683;28;20120;-62
2023/06/10 01:55:37;;;;;;;6.65;4.75;;;22.10;92.10;;;;;;4190412;28;20082;-62
2023/06/10 01:57:37;;;;;;;6.05;4.20;;;22.10;92.40;;;;;;4177317;28;20035;-62
2023/06/10 01:59:38;;;;;;;6.10;4.13;;;22.10;92.10;;;;;;4187561;28;20464;-61
2023/06/10 02:01:39;;;;;;;7.07;4.60;;;22.20;91.90;;;;;;4182652;28;20440;-61
2023/06/10 02:03:40;;;;;;;5.97;4.55;;;22.20;91.90;;;;;;4177668;28;20029;-61
2023/06/10 02:05:40;;;;;;;6.97;4.38;;;22.30;92.00;;;;;;4185276;28;20031;-62
2023/06/10 02:07:41;;;;;;;8.38;5.72;;;22.30;91.80;;;;;;4177468;28;20041;-61
2023/06/10 02:09:41;;;;;;;7.10;4.95;;;22.30;91.70;;;;;;4178468;28;20471;-61
2023/06/10 02:11:42;;;;;;;6.47;4.47;;;22.30;91.80;;;;;;4177560;28;20499;-61
2023/06/10 02:13:43;;;;;;;6.35;4.63;;;22.40;91.60;;;;;;4177591;28;20025;-61
2023/06/10 02:15:43;;;;;;;6.97;4.53;;;22.40;91.90;;;;;;4187972;28;20029;-61
2023/06/10 02:17:44;;;;;;;6.50;4.32;;;22.40;91.80;;;;;;4179771;28;20119;-61
2023/06/10 02:19:52;;;;;;;5.85;4.28;;;22.40;91.90;;;;;;4177630;28;20423;-61
2023/06/10 02:21:53;;;;;;;5.97;4.32;;;22.40;91.90;;;;;;4176023;28;20044;-61
2023/06/10 02:23:53;;;;;;;5.65;4.65;;;22.40;91.70;;;;;;4183565;28;20061;-61
2023/06/10 02:25:54;;;;;;;6.53;4.45;;;22.40;91.70;;;;;;4183895;28;20030;-61
2023/06/10 02:27:54;;;;;;;7.13;4.45;;;22.40;91.70;;;;;;4173297;28;20072;-61
2023/06/10 02:29:55;;;;;;;5.85;4.18;;;22.40;91.30;;;;;;4174049;28;20025;-61
2023/06/10 02:31:56;;;;;;;5.85;4.20;;;22.40;91.60;;;;;;4183705;28;20060;-61
2023/06/10 02:33:56;;;;;;;7.00;4.75;;;22.40;91.70;;;;;;4186478;28;20036;-61
2023/06/10 02:35:57;;;;;;;5.45;4.13;;;22.40;91.30;;;;;;4191744;28;20032;-61
2023/06/10 02:37:58;;;;;;;5.72;4.53;;;22.40;91.30;;;;;;4173975;28;20052;-61
2023/06/10 02:39:58;;;;;;;5.13;4.20;;;22.50;91.50;;;;;;4175813;28;20028;-61
2023/06/10 02:41:59;;;;;;;7.20;4.60;;;22.40;91.50;;;;;;4175873;28;20047;-61
2023/06/10 02:43:59;;;;;;;6.03;5.00;;;22.40;91.40;;;;;;4171699;28;20052;-61
2023/06/10 02:46:00;;;;;;;10.38;4.45;;;22.40;91.40;;;;;;4173899;28;20065;-61
2023/06/10 02:48:01;;;;;;;7.00;4.82;;;22.30;91.60;;;;;;4174647;28;20033;-61
2023/06/10 02:50:01;;;;;;;6.80;4.97;;;22.30;91.70;;;;;;4183691;28;20040;-61
2023/06/10 02:52:02;;;;;;;5.18;4.63;;;22.30;92.00;;;;;;4176144;28;20045;-61
2023/06/10 02:54:03;;;;;;;5.95;4.45;;;22.30;92.10;;;;;;4181244;28;20383;-61
2023/06/10 02:56:04;;;;;;;7.63;5.20;;;22.30;91.90;;;;;;4180443;28;20043;-61
2023/06/10 02:58:05;;;;;;;7.18;4.60;;;22.20;92.10;;;;;;4188424;28;20058;-61
2023/06/10 03:00:10;;;;;;;7.82;4.78;;;22.20;92.00;;;;;;4173060;28;20070;-62
2023/06/10 03:02:11;;;;;;;6.35;4.55;;;22.20;92.10;;;;;;4175640;28;20080;-61
2023/06/10 03:04:13;;;;;;;6.55;4.93;;;22.20;91.90;;;;;;4173625;28;20032;-61
2023/06/10 03:06:14;;;;;;;6.60;5.10;;;22.20;91.90;;;;;;4183927;28;20112;-61
2023/06/10 03:08:14;;;;;;;6.95;4.95;;;22.10;91.90;;;;;;4178004;28;20154;-61
2023/06/10 03:10:15;;;;;;;6.00;4.82;;;22.10;91.90;;;;;;4183717;28;20067;-61
2023/06/10 03:12:16;;;;;;;6.35;5.03;;;22.10;91.90;;;;;;4188377;28;20029;-61
2023/06/10 03:14:16;;;;;;;7.55;5.18;;;22.00;92.10;;;;;;4180860;28;20472;-61
2023/06/10 03:16:17;;;;;;;6.50;5.20;;;22.00;92.20;;;;;;4177408;28;20035;-61
2023/06/10 03:18:18;;;;;;;6.90;4.90;;;22.00;92.40;;;;;;4170074;28;20029;-62
2023/06/10 03:20:18;;;;;;;6.78;5.07;;;22.00;92.60;;;;;;4171400;28;20032;-62
2023/06/10 03:22:20;;;;;;;7.85;4.93;;;21.90;92.60;;;;;;4163101;28;20111;-61
2023/06/10 03:24:21;;;;;;;7.03;5.13;;;22.00;92.70;;;;;;4171018;28;20076;-61
2023/06/10 03:26:22;;;;;;;6.70;5.25;;;22.00;93.20;;;;;;4175117;28;20052;-61
2023/06/10 03:28:22;;;;;;;8.40;4.80;;;21.90;93.00;;;;;;4184326;28;20028;-61
2023/06/10 03:30:23;;;;;;;6.25;5.18;;;21.90;92.80;;;;;;4172917;28;20048;-61
2023/06/10 03:32:24;;;;;;;6.68;4.95;;;21.90;92.60;;;;;;4176577;28;20056;-61
2023/06/10 03:34:24;;;;;;;9.00;5.38;;;21.90;92.50;;;;;;4177767;28;20536;-61
2023/06/10 03:36:29;;;;;;;5.45;4.45;;;21.90;92.70;;;;;;4191700;28;20431;-61
2023/06/10 03:38:29;;;;;;;5.78;4.57;;;21.90;92.60;;;;;;4177606;28;20064;-61
2023/06/10 03:40:31;;;;;;;6.75;5.30;;;21.90;92.70;;;;;;4173609;28;20404;-61
2023/06/10 03:42:32;;;;;;;7.75;4.57;;;21.90;92.70;;;;;;4176153;28;20064;-61
2023/06/10 03:44:33;;;;;;;7.10;5.22;;;21.90;92.90;;;;;;4172877;28;20037;-61
2023/06/10 03:46:34;;;;;;;6.05;4.90;;;21.90;93.00;;;;;;4184607;28;20086;-61
2023/06/10 03:48:34;;;;;;;6.30;5.05;;;21.90;93.10;;;;;;4181684;28;25681;-61
2023/06/10 03:50:36;;;;;;;7.40;5.40;;;21.80;93.00;;;;;;4173683;28;20423;-61
2023/06/10 03:52:38;;;;;;;6.72;5.35;;;21.80;93.10;;;;;;4191659;28;20082;-61
2023/06/10 03:54:40;;;;;;;6.53;5.15;;;21.80;93.00;;;;;;4178762;28;20112;-61
2023/06/10 03:56:41;;;;;;;9.13;5.15;;;21.90;93.10;;;;;;4182647;28;20531;-61
2023/06/10 03:58:42;;;;;;;6.35;4.82;;;21.80;93.00;;;;;;4180220;28;20476;-61
2023/06/10 04:00:42;;;;;;;7.22;5.28;;;21.90;93.00;;;;;;4181363;28;20032;-61
2023/06/10 04:02:49;;;;;;;7.03;5.47;;;21.80;92.90;;;;;;4172730;28;20496;-61
2023/06/10 04:04:50;;;;;;;7.25;5.60;;;21.90;93.20;;;;;;4171518;28;20033;-61
2023/06/10 04:06:51;;;;;;;6.20;4.70;;;21.80;93.20;;;;;;4173302;28;20032;-61
2023/06/10 04:08:52;;;;;;;6.35;5.40;;;21.90;93.20;;;;;;4172447;28;20029;-61
2023/06/10 04:10:52;;;;;;;6.65;5.25;;;21.90;93.80;;;;;;4179334;28;20441;-61
2023/06/10 04:12:53;;;;;;;6.28;5.13;;;21.90;94.10;;;;;;4184210;28;20098;-61
2023/06/10 04:14:54;;;;;;;6.90;5.43;;;21.90;93.80;;;;;;4172476;28;20037;-61
2023/06/10 04:16:55;;;;;;;7.38;5.55;;;21.90;93.70;;;;;;4172363;28;20047;-61
2023/06/10 04:18:55;;;;;;;8.32;5.47;;;21.90;93.80;;;;;;4173516;28;20126;-61
2023/06/10 04:20:57;;;;;;;8.38;5.70;;;21.90;94.20;;;;;;4171327;28;20102;-61
2023/06/10 04:22:57;;;;;;;6.65;5.00;;;21.90;94.40;;;;;;4173672;28;20059;-61
2023/06/10 04:24:58;;;;;;;7.32;5.20;;;21.90;94.30;;;;;;4170960;28;20037;-61
2023/06/10 04:27:00;;;;;;;7.32;5.55;;;21.90;94.30;;;;;;4170051;28;20487;-60
2023/06/10 04:29:00;;;;;;;6.10;5.40;;;21.90;94.50;;;;;;4179230;28;20118;-61
2023/06/10 04:31:03;;;;;;;7.65;5.28;;;21.90;94.70;;;;;;4173571;28;20029;-61
2023/06/10 04:33:06;;;;;;;6.38;5.72;;;21.90;94.70;;;;;;4177886;28;20032;-60
2023/06/10 04:35:08;;;;;;;7.57;5.63;;;21.90;94.70;;;;;;4190517;28;20024;-61
2023/06/10 04:37:08;;;;;;;8.48;5.32;;;21.90;95.00;;;;;;4184606;28;20044;-61
2023/06/10 04:39:09;;;;;;;7.50;5.72;;;21.90;95.00;;;;;;4180633;28;20033;-61
2023/06/10 04:41:09;;;;;;;8.25;6.05;;;21.90;95.20;;;;;;4181867;28;20041;-61
2023/06/10 04:43:10;;;;;;;7.20;5.57;;;21.90;95.30;;;;;;4186434;28;20036;-61
2023/06/10 04:45:11;;;;;;;7.25;6.10;;;21.90;95.40;;;;;;4182368;28;20467;-62
2023/06/10 04:47:12;;;;;;;7.68;6.07;;;21.90;95.30;;;;;;4183409;28;20033;-61
2023/06/10 04:49:14;;;;;;;8.98;5.97;;;21.90;95.70;;;;;;4182974;28;20111;-61
2023/06/10 04:51:14;;;;;;;7.32;6.28;;;21.90;95.80;;;;;;4182440;28;20040;-61
2023/06/10 04:53:16;;;;;;;7.38;6.30;;;21.90;95.60;;;;;;4196095;28;20060;-61
2023/06/10 04:55:16;;;;;;;7.10;5.90;;;21.80;95.60;;;;;;4180303;28;20055;-61
2023/06/10 04:57:17;;;;;;;7.90;6.07;;;21.80;95.90;;;;;;4181383;28;20028;-61
2023/06/10 04:59:18;;;;;;;8.48;6.10;;;21.80;96.00;;;;;;4185724;28;20029;-64
2023/06/10 05:01:18;;;;;;;10.25;6.90;;;21.80;96.10;;;;;;4175014;28;20079;-62
2023/06/10 05:03:19;;;;;;;7.20;5.88;;;21.80;96.40;;;;;;4184637;28;20040;-62
2023/06/10 05:05:19;;;;;;;8.10;6.10;;;21.70;96.80;;;;;;4180190;28;20040;-62
2023/06/10 05:07:20;;;;;;;7.03;5.63;;;21.70;97.20;;;;;;4189766;28;20029;-61
2023/06/10 05:09:20;;;;;;;7.85;6.53;;;21.70;97.40;;;;;;4178819;28;20631;-61
2023/06/10 05:11:21;;;;;;;8.68;7.07;;;21.60;97.60;;;;;;4176665;28;20124;-61
2023/06/10 05:13:22;;;;;;;12.18;7.05;;;21.50;97.30;;;;;;4181146;28;20029;-61
2023/06/10 05:15:23;;;;;;;11.50;7.63;;;21.40;97.40;;;;;;4185559;28;20530;-61
2023/06/10 05:17:25;;;;;;;10.48;7.28;;;21.30;97.50;;;;;;4183468;28;20423;-61
2023/06/10 05:19:27;;;;;;;9.43;6.72;;;21.20;97.90;;;;;;4188806;28;20399;-60
2023/06/10 05:21:27;;;;;;;10.05;6.93;;;21.20;98.30;;;;;;4179332;28;20471;-61
2023/06/10 05:23:28;;;;;;;10.27;6.88;;;21.20;98.50;;;;;;4169393;28;20121;-61
2023/06/10 05:25:30;;;;;;;8.52;6.18;;;21.20;98.30;;;;;;4174828;28;21036;-61
2023/06/10 05:27:31;;;;;;;7.88;5.72;;;21.20;98.70;;;;;;4182844;28;20032;-60
2023/06/10 05:29:31;;;;;;;7.15;5.57;;;21.30;99.00;;;;;;4193117;28;20040;-61
2023/06/10 05:31:32;;;;;;;7.97;6.13;;;21.40;99.00;;;;;;4176334;28;20060;-61
2023/06/10 05:33:33;;;;;;;11.73;6.97;;;21.50;99.30;;;;;;4186356;28;20055;-60
2023/06/10 05:35:33;;;;;;;8.77;5.80;;;21.50;98.50;;;;;;4192977;28;20040;-61
2023/06/10 05:37:36;;;;;;;9.23;6.32;;;21.50;98.60;;;;;;4187064;28;20037;-61
2023/06/10 05:39:37;;;;;;;9.32;6.65;;;21.60;98.70;;;;;;4180744;28;20063;-61
2023/06/10 05:41:38;;;;;;;8.93;5.72;;;21.60;98.70;;;;;;4178648;28;20377;-61
2023/06/10 05:43:38;;;;;;;7.05;5.47;;;21.70;98.80;;;;;;4183336;28;20387;-61
2023/06/10 05:45:40;;;;;;;9.40;6.13;;;21.80;99.00;;;;;;4178261;28;20377;-60
2023/06/10 05:47:40;;;;;;;8.98;5.53;;;21.80;98.10;;;;;;4183323;28;20036;-61
2023/06/10 05:49:41;;;;;;;8.50;6.45;;;22.00;99.10;;;;;;4190623;28;20035;-61
2023/06/10 05:51:41;;;;;;;6.70;5.35;;;22.30;98.30;;;;;;4187494;28;20076;-61
2023/06/10 05:53:42;;;;;;;7.78;5.90;;;22.60;98.30;;;;;;4178669;28;20120;-61
2023/06/10 05:55:44;;;;;;;8.07;5.93;;;23.00;96.70;;;;;;4183845;28;20529;-61
2023/06/10 05:57:45;;;;;;;9.18;5.55;;;23.50;95.60;;;;;;4175834;28;20492;-61
2023/06/10 05:59:45;;;;;;;9.65;6.20;;;23.80;96.30;;;;;;4174987;28;20037;-61
2023/06/10 06:01:46;;;;;;;6.28;4.85;;;24.20;94.30;;;;;;4173254;28;20381;-62
2023/06/10 06:03:46;;;;;;;7.05;5.30;;;24.60;94.90;;;;;;4193617;28;20412;-61
2023/06/10 06:05:47;;;;;;;7.93;5.60;;;24.90;93.70;;;;;;4183237;28;20071;-62
2023/06/10 06:07:47;;;;;;;6.40;4.88;;;25.20;93.00;;;;;;4187194;28;20044;-62
2023/06/10 06:09:48;;;;;;;7.50;5.10;;;25.70;93.00;;;;;;4182402;28;20049;-62
2023/06/10 06:11:49;;;;;;;6.78;4.70;;;26.00;92.40;;;;;;4185604;28;20049;-62
2023/06/10 06:13:49;;;;;;;6.82;4.95;;;26.30;91.50;;;;;;4180948;28;20464;-62
2023/06/10 06:15:50;;;;;;;8.50;4.50;;;26.70;90.60;;;;;;4167892;28;20033;-65
2023/06/10 06:17:53;;;;;;;7.28;4.68;;;26.90;88.90;;;;;;4181566;28;20112;-66
2023/06/10 06:19:54;;;;;;;7.00;4.68;;;27.10;88.40;;;;;;4173839;28;20060;-65
2023/06/10 06:21:55;;;;;;;10.23;5.70;;;27.20;88.70;;;;;;4171413;28;20418;-65
2023/06/10 06:23:55;;;;;;;10.63;5.63;;;27.20;86.80;;;;;;4187178;28;20033;-67
2023/06/10 06:25:56;;;;;;;5.63;4.45;;;27.20;85.10;;;;;;4186900;28;20043;-66
2023/06/10 06:27:56;;;;;;;6.47;4.85;;;27.30;87.20;;;;;;4186248;28;20048;-65
2023/06/10 06:29:57;;;;;;;8.38;4.93;;;27.50;86.50;;;;;;4176737;28;20036;-66
2023/06/10 06:31:58;;;;;;;6.80;4.55;;;27.60;86.50;;;;;;4163189;28;20061;-66
2023/06/10 06:33:58;;;;;;;7.07;4.63;;;27.80;86.30;;;;;;4178682;28;20441;-66
2023/06/10 06:36:00;;;;;;;8.23;4.43;;;28.00;86.20;;;;;;4183425;28;20037;-66
2023/06/10 06:38:00;;;;;;;7.30;4.90;;;28.00;84.00;;;;;;4185387;28;20029;-66
2023/06/10 06:40:01;;;;;;;7.47;4.90;;;28.10;83.90;;;;;;4182238;28;20052;-65
2023/06/10 06:42:02;;;;;;;8.00;5.00;;;28.00;79.40;;;;;;4186336;28;20045;-66
2023/06/10 06:44:03;;;;;;;8.93;5.25;;;27.70;77.10;;;;;;4188003;28;20419;-66
2023/06/10 06:46:03;;;;;;;9.85;5.43;;;27.70;77.60;;;;;;4177138;28;20037;-66
2023/06/10 06:48:05;;;;;;;6.95;4.72;;;27.70;77.80;;;;;;4171435;28;20045;-66
2023/06/10 06:50:06;;;;;;;9.17;5.37;;;27.70;80.80;;;;;;4179764;28;20044;-66
2023/06/10 06:52:07;;;;;;;8.45;5.57;;;27.70;80.10;;;;;;4172682;28;20279;-65
2023/06/10 06:54:08;;;;;;;9.63;5.50;;;27.50;77.60;;;;;;4172303;28;20509;-65
2023/06/10 06:56:08;;;;;;;8.38;5.03;;;27.20;78.20;;;;;;4170407;28;20036;-65
2023/06/10 06:58:09;;;;;;;13.05;6.13;;;27.10;78.50;;;;;;4173289;28;20115;-65
2023/06/10 07:00:10;;;;;;;10.48;5.95;;;26.70;78.50;;;;;;4169824;28;20033;-66
2023/06/10 07:02:10;;;;;;;10.38;5.57;;;26.70;80.10;;;;;;4174212;28;20052;-65
2023/06/10 07:04:11;;;;;;;10.57;5.45;;;26.70;79.30;;;;;;4175070;28;20029;-65
2023/06/10 07:06:12;;;;;;;9.75;5.97;;;26.70;78.30;;;;;;4173722;28;20089;-65
2023/06/10 07:08:13;;;;;;;8.80;5.65;;;26.70;81.50;;;;;;4172771;28;20037;-65
2023/06/10 07:10:14;;;;;;;7.32;4.78;;;26.80;81.80;;;;;;4172185;28;20141;-66
2023/06/10 07:12:15;;;;;;;8.27;4.95;;;26.80;81.50;;;;;;4175097;28;20041;-66
2023/06/10 07:14:15;;;;;;;8.80;5.40;;;27.10;82.40;;;;;;4176654;28;20488;-65
2023/06/10 07:16:16;;;;;;;9.70;5.20;;;27.20;81.00;;;;;;4175964;28;20117;-65
2023/06/10 07:18:17;;;;;;;5.72;4.40;;;27.20;80.50;;;;;;4176520;28;20047;-66
2023/06/10 07:20:17;;;;;;;8.35;4.95;;;27.40;82.00;;;;;;4172831;28;20040;-66
2023/06/10 07:22:18;;;;;;;9.80;5.40;;;27.30;79.50;;;;;;4173728;28;20480;-65
2023/06/10 07:24:20;;;;;;;7.95;4.78;;;27.40;78.80;;;;;;4183844;28;20045;-66
2023/06/10 07:26:22;;;;;;;9.77;5.07;;;27.30;80.10;;;;;;4183839;28;20082;-65
2023/06/10 07:28:22;;;;;;;8.60;5.03;;;27.20;78.10;;;;;;4182178;28;20124;-66
2023/06/10 07:30:23;;;;;;;7.15;4.45;;;27.00;78.10;;;;;;4176787;28;20040;-66
2023/06/10 07:32:24;;;;;;;7.35;4.60;;;27.30;81.10;;;;;;4177653;28;20047;-65
2023/06/10 07:34:25;;;;;;;6.10;4.35;;;27.30;79.70;;;;;;4182927;28;20037;-66
2023/06/10 07:36:27;;;;;;;5.90;3.97;;;27.40;79.80;;;;;;4186996;28;20094;-66
2023/06/10 07:38:28;;;;;;;7.07;4.32;;;27.60;81.40;;;;;;4187959;28;20036;-65
2023/06/10 07:40:29;;;;;;;10.35;4.93;;;27.70;81.90;;;;;;4178913;28;20040;-66
2023/06/10 07:42:30;;;;;;;14.93;5.32;;;27.70;79.00;;;;;;4180719;28;20086;-66
2023/06/10 07:44:31;;;;;;;8.60;5.10;;;27.80;77.40;;;;;;4180484;28;20048;-66
2023/06/10 07:46:32;;;;;;;8.05;4.68;;;27.60;76.50;;;;;;4175060;28;20438;-65
2023/06/10 07:48:32;;;;;;;8.73;4.82;;;27.50;76.80;;;;;;4177423;28;20033;-66
2023/06/10 07:50:33;;;;;;;8.07;4.32;;;27.60;78.90;;;;;;4182414;28;20061;-66
2023/06/10 07:52:34;;;;;;;10.77;4.72;;;27.70;78.30;;;;;;4173377;28;20064;-66
2023/06/10 07:54:35;;;;;;;6.28;4.13;;;27.80;76.40;;;;;;4174928;28;20029;-66
2023/06/10 07:56:35;;;;;;;6.97;3.95;;;27.90;78.10;;;;;;4161578;28;20041;-66
2023/06/10 07:58:36;;;;;;;6.72;3.67;;;28.00;77.00;;;;;;4168606;28;20494;-66
2023/06/10 08:00:36;;;;;;;7.22;4.10;;;28.00;78.20;;;;;;4174341;28;20407;-66
2023/06/10 08:02:37;;;;;;;7.00;3.95;;;28.10;79.60;;;;;;4176621;28;21549;-66
2023/06/10 08:04:38;;;;;;;7.05;4.38;;;28.20;79.70;;;;;;4177961;28;20040;-65
2023/06/10 08:06:38;;;;;;;5.82;3.97;;;28.20;77.60;;;;;;4183518;28;20056;-65
2023/06/10 08:08:42;;;;;;;8.88;4.53;;;28.30;79.50;;;;;;4176882;28;20128;-65
2023/06/10 08:10:43;;;;;;;7.47;4.50;;;28.30;77.30;;;;;;4183885;28;20033;-65
2023/06/10 08:12:44;;;;;;;7.40;4.03;;;28.20;77.80;;;;;;4182559;28;20461;-65
2023/06/10 08:14:44;;;;;;;6.07;3.75;;;28.40;81.20;;;;;;4168000;28;20155;-65
2023/06/10 08:16:45;;;;;;;5.60;4.15;;;28.50;80.90;;;;;;4168577;28;20460;-65
2023/06/10 08:18:46;;;;;;;11.73;4.85;;;28.70;81.10;;;;;;4169922;28;20119;-66
2023/06/10 08:20:46;;;;;;;10.80;4.45;;;28.50;76.10;;;;;;4167011;28;20082;-66
2023/06/10 08:22:47;;;;;;;7.28;3.65;;;28.70;78.00;;;;;;4162992;28;20056;-65
2023/06/10 08:24:48;;;;;;;8.10;4.30;;;28.70;76.80;;;;;;4167900;28;20037;-65
2023/06/10 08:26:48;;;;;;;8.65;3.78;;;28.70;76.70;;;;;;4171578;28;20123;-65
2023/06/10 08:28:49;;;;;;;7.63;3.70;;;28.90;78.40;;;;;;4172665;28;20083;-65
2023/06/10 08:30:50;;;;;;;8.80;3.95;;;29.00;77.60;;;;;;4171299;28;20037;-65
2023/06/10 08:32:51;;;;;;;6.07;4.03;;;29.10;79.00;;;;;;4169976;28;20064;-65
2023/06/10 08:34:52;;;;;;;6.90;4.15;;;29.20;80.00;;;;;;4165518;28;20369;-66
2023/06/10 08:36:55;;;;;;;8.95;4.40;;;29.20;74.30;;;;;;4164681;28;20056;-66
2023/06/10 08:38:55;;;;;;;6.53;3.95;;;29.00;74.40;;;;;;4163577;28;20427;-66
2023/06/10 08:41:00;;;;;;;9.05;4.38;;;29.00;75.60;;;;;;4169116;28;20033;-66
2023/06/10 08:43:06;;;;;;;6.50;3.80;;;29.10;75.50;;;;;;4170786;28;20041;-66
2023/06/10 08:45:11;;;;;;;6.75;4.05;;;29.10;76.00;;;;;;4175449;28;20460;-66
2023/06/10 08:47:16;;;;;;;7.00;3.55;;;29.20;76.40;;;;;;4172560;28;20037;-65
2023/06/10 08:49:24;;;;;;;8.65;4.20;;;29.30;79.00;;;;;;4172005;28;20116;-65
2023/06/10 08:51:26;;;;;;;6.70;4.15;;;29.30;76.60;;;;;;4173792;28;20434;-66
2023/06/10 08:53:31;;;;;;;8.38;4.60;;;29.40;79.70;;;;;;4172385;28;20048;-65
2023/06/10 08:55:45;;;;;;;6.70;4.15;;;29.30;71.40;;;;;;4172689;28;20037;-66
2023/06/10 08:57:47;;;;;;;8.90;4.28;;;29.30;75.30;;;;;;4172948;28;20037;-65
2023/06/10 08:59:49;;;;;;;7.32;4.15;;;29.30;73.10;;;;;;4173673;28;20523;-65
2023/06/10 09:01:50;;;;;;;8.25;4.03;;;29.20;74.50;;;;;;4170461;28;20075;-65
2023/06/10 09:03:51;;;;;;;8.25;4.60;;;29.20;73.30;;;;;;4165516;28;20046;-66
2023/06/10 09:05:52;;;;;;;6.50;3.72;;;29.10;74.10;;;;;;4169186;28;20091;-66
2023/06/10 09:07:53;;;;;;;5.88;3.25;;;29.20;73.80;;;;;;4170375;28;20276;-65
2023/06/10 09:09:55;;;;;;;5.47;3.75;;;29.20;75.80;;;;;;4172280;28;20098;-66
2023/06/10 09:11:56;;;;;;;4.10;3.13;;;29.30;75.40;;;;;;4172679;28;20411;-66
2023/06/10 09:13:56;;;;;;;7.07;4.22;;;29.40;74.30;;;;;;4170547;28;20112;-66
2023/06/10 09:16:00;;;;;;;11.13;6.10;;;29.40;73.80;;;;;;4176873;28;20562;-66
2023/06/10 09:18:01;;;;;;;8.45;4.65;;;29.40;73.80;;;;;;4171589;28;20033;-66
2023/06/10 09:20:03;;;;;;;5.80;4.22;;;29.30;72.50;;;;;;4184006;28;20036;-66
2023/06/10 09:22:04;;;;;;;6.45;4.63;;;29.40;75.80;;;;;;4174813;28;20045;-66
2023/06/10 09:24:05;;;;;;;9.23;4.28;;;29.40;75.20;;;;;;4176283;28;20051;-66
2023/06/10 09:26:08;;;;;;;8.75;4.80;;;29.50;76.60;;;;;;4175528;28;20114;-65
2023/06/10 09:28:15;;;;;;;7.07;4.22;;;29.40;73.50;;;;;;4177769;28;20041;-66
2023/06/10 09:30:29;;;;;;;8.45;4.70;;;29.50;75.70;;;;;;4178586;28;20044;-65
2023/06/10 09:32:30;;;;;;;8.40;4.85;;;29.50;73.10;;;;;;4168379;28;20397;-65
2023/06/10 09:34:31;;;;;;;7.72;4.68;;;29.50;72.10;;;;;;4174168;28;20040;-67
2023/06/10 09:36:33;;;;;;;8.35;5.32;;;29.50;72.70;;;;;;4175607;28;20039;-66
2023/06/10 09:38:35;;;;;;;7.75;4.32;;;29.40;73.00;;;;;;4171229;28;20033;-66
2023/06/10 09:40:52;;;;;;;5.22;3.67;;;29.50;73.20;;;;;;4173011;28;20078;-65
2023/06/10 09:42:55;;;;;;;8.35;4.53;;;29.50;74.00;;;;;;4171603;28;20515;-65
2023/06/10 09:44:56;;;;;;;8.10;4.20;;;29.50;73.10;;;;;;4171710;28;20087;-65
2023/06/10 09:46:59;;;;;;;7.45;4.32;;;29.60;74.10;;;;;;4174667;28;20036;-66
2023/06/10 09:49:00;;;;;;;6.80;4.45;;;29.50;72.70;;;;;;4171029;28;20112;-66
2023/06/10 09:51:00;;;;;;;6.35;4.05;;;29.50;72.30;;;;;;4159515;28;20029;-66
2023/06/10 09:53:04;;;;;;;9.32;4.25;;;29.60;77.90;;;;;;4180811;28;20060;-66
2023/06/10 09:55:08;;;;;;;8.02;4.38;;;29.70;76.00;;;;;;4173534;28;20366;-66
2023/06/10 09:57:10;;;;;;;7.85;4.40;;;29.80;75.00;;;;;;4180864;28;20040;-66
2023/06/10 09:59:10;;;;;;;4.93;3.90;;;29.90;74.50;;;;;;4179399;28;20040;-65
2023/06/10 10:01:13;;;;;;;5.97;3.83;;;29.90;76.20;;;;;;4170767;28;20036;-65
2023/06/10 10:03:22;;;;;;;7.07;3.92;;;30.00;74.80;;;;;;4169106;28;20479;-65
2023/06/10 10:05:23;;;;;;;6.72;3.72;;;30.00;75.30;;;;;;4176262;28;20037;-66
2023/06/10 10:07:24;;;;;;;8.23;4.13;;;30.20;77.00;;;;;;4173354;28;20456;-66
2023/06/10 10:09:24;;;;;;;7.22;4.32;;;30.30;78.20;;;;;;4170325;28;20033;-66
2023/06/10 10:11:28;;;;;;;6.13;4.00;;;30.40;75.70;;;;;;4166031;28;20123;-66
2023/06/10 10:13:33;;;;;;;6.28;4.35;;;30.50;76.60;;;;;;4167552;28;20124;-65
2023/06/10 10:15:35;;;;;;;8.05;4.88;;;30.30;73.20;;;;;;4166351;28;20482;-66
2023/06/10 10:18:06;;;;;;;5.43;3.88;;;30.20;72.60;;;;;;4177694;28;20483;-66
2023/06/10 10:20:08;;;;;;;6.88;4.80;;;30.30;76.00;;;;;;4170835;28;20109;-65
2023/06/10 10:22:14;;;;;;;7.32;4.90;;;30.20;73.80;;;;;;4170208;28;20052;-65
2023/06/10 10:24:23;;;;;;;5.78;4.07;;;30.20;73.10;;;;;;4182095;28;20487;-65
2023/06/10 10:26:26;;;;;;;6.65;4.15;;;30.30;75.00;;;;;;4171360;28;20040;-65
2023/06/10 10:28:37;;;;;;;4.95;3.83;;;30.30;75.40;;;;;;4170072;28;20072;-66
2023/06/10 10:30:42;;;;;;;6.45;4.22;;;30.30;73.60;;;;;;4160785;28;20041;-66
2023/06/10 10:33:09;;;;;;;7.78;4.07;;;30.30;74.90;;;;;;4178508;28;20468;-65